Portada
METAR-TAF:

METAR-TAF

Aeroports :

Lenkoran, Azerbaidjan

latitud: 38-44-47N, longitud: 048-49-04E, altitud: 9 m

Observació

L'informe es va fer fa 19 minuts, a les 21:00 UTC
Vent calma
Temperatura 20°C
Humitat 83%
Pressió 1005 hPa
Visibilitat 10 km o més

METAR: UBBL 182100Z 00000KT 9999 NSC 20/17 Q1005 R33/CLRD// NOSIG RMK MT OP

Hora: 01:19 (21:19 UTC)

Pronòstic

L'informe es va fer fa 4 hores i 13 minuts, a les 17:06 UTC
Pronòstic vàlid del 18 a les 18 UTC al 19 a les 18 UTC
Vent 4 kt amb direcció variable
Visibilitat 10 km o més
Temporalment
l' 18 a les 18 UTC al 18 a les 21 UTC
Vent 6 kt del Sud
Temporalment
l' 18 a les 21 UTC al 19 a les 03 UTC
Visibilitat: 4000 m
Escasses núvols a una alçada de 800 ft
boirina
Evolucionant progressivament
l' 19 a les 06 UTC al 19 a les 08 UTC
Vent 6 kt del Est/Sud-Est

TAF: UBBL 181706Z 1818/1918 VRB04KT 9999 NSC TX32/1910Z TN20/1902Z TEMPO 1818/1821 18006KT TEMPO 1821/1903 4000 BR FEW008 BECMG 1906/1908 12006KT

Observacions i pronòstics meteorològics de més de 4000 aeroports (METAR i TAF).

Les estacions disponibles són els punts grocs i vermells al mapa.

Posi el ratolí al punt desitjat per veure el nom de l'estació.

Feu clic per veure les observacions i els pronòstics meteorològics.

Per canviar el mapa: feu clic els botons verds amb una creu de color negre per apropar; al botó verd amb un guió per allunyar la imatge; o en les fletxes verdes per a mapes adjacents.


METAR-TAF: